createdAt,value
2018-02-11T10:15:35.987Z,96724.88
2018-02-11T10:18:07.088Z,96732.03
2018-02-11T10:20:38.186Z,96727.58
2018-02-11T10:23:09.262Z,96726.48
2018-02-11T10:25:40.329Z,96729.56
2018-02-11T10:28:11.432Z,96726.85
2018-02-11T10:30:42.487Z,96725.74
2018-02-11T10:33:13.612Z,96710.05
2018-02-11T10:35:44.753Z,96704.89
2018-02-11T10:38:15.837Z,96706.25
2018-02-11T10:40:46.962Z,96709.83
2018-02-11T10:43:18.030Z,96705.73
2018-02-11T10:45:49.163Z,96704.06
2018-02-11T10:48:20.200Z,96703.06
2018-02-11T10:50:51.321Z,96703.61
2018-02-11T10:53:22.495Z,96699.06
2018-02-11T10:55:53.610Z,96688.78
2018-02-11T10:58:24.698Z,96679.28
2018-02-11T11:00:55.799Z,96678.81
2018-02-11T11:03:26.855Z,96671.25
2018-02-11T11:05:57.978Z,96666.80
2018-02-11T11:08:29.091Z,96666.48
2018-02-11T11:11:00.285Z,96667.67
2018-02-11T11:13:31.438Z,96663.12
2018-02-11T11:16:02.553Z,96669.67
2018-02-11T11:18:33.627Z,96660.61
2018-02-11T11:21:04.728Z,96656.02
2018-02-11T11:23:35.864Z,96650.30
2018-02-11T11:26:06.956Z,96649.25
2018-02-11T11:28:38.056Z,96648.09
2018-02-11T11:31:09.174Z,96643.76
2018-02-11T11:33:40.245Z,96648.22
2018-02-11T11:36:11.560Z,96639.02
2018-02-11T11:38:42.616Z,96638.50
2018-02-11T11:41:13.732Z,96646.36
2018-02-11T11:43:44.839Z,96637.63
2018-02-11T11:46:15.929Z,96647.13
2018-02-11T11:48:47.017Z,96643.48
2018-02-11T11:51:18.078Z,96639.33
2018-02-11T11:53:49.170Z,96639.83
2018-02-11T11:56:20.251Z,96631.17
2018-02-11T11:58:51.333Z,96629.28
2018-02-11T12:01:22.424Z,96622.97
2018-02-11T12:03:53.507Z,96630.04
2018-02-11T12:06:24.567Z,96618.92
2018-02-11T12:08:55.642Z,96612.45
2018-02-11T12:11:26.722Z,96596.88
2018-02-11T12:13:57.822Z,96593.55
2018-02-11T12:16:28.945Z,96589.84
2018-02-11T12:19:00.039Z,96588.40
2018-02-11T12:21:31.134Z,96584.99
2018-02-11T12:24:02.196Z,96577.63
2018-02-11T12:26:33.294Z,96567.37
2018-02-11T12:29:04.406Z,96571.05
2018-02-11T12:31:35.498Z,96565.14
2018-02-11T12:34:06.530Z,96562.27
2018-02-11T12:36:37.655Z,96560.68
2018-02-11T12:39:08.718Z,96557.13
2018-02-11T12:41:39.790Z,96556.73
2018-02-11T12:44:10.928Z,96551.33
2018-02-11T12:46:42.222Z,96555.36
2018-02-11T12:49:13.304Z,96560.09
2018-02-11T12:51:44.414Z,96555.32
2018-02-11T12:54:15.442Z,96559.88
2018-02-11T12:56:46.473Z,96550.89
2018-02-11T12:59:17.570Z,96550.84
2018-02-11T13:01:48.639Z,96542.84
2018-02-11T13:04:19.716Z,96545.66
2018-02-11T13:06:50.791Z,96532.75
2018-02-11T13:09:21.870Z,96541.56
2018-02-11T13:12:00.042Z,96540.48
2018-02-11T13:14:31.098Z,96545.86
2018-02-11T13:17:02.154Z,96532.25
2018-02-11T13:19:33.245Z,96531.01
2018-02-11T13:22:04.311Z,96533.16
2018-02-11T13:24:35.421Z,96532.55
2018-02-11T13:27:06.477Z,96527.16
2018-02-11T13:29:37.581Z,96530.73
2018-02-11T13:32:08.678Z,96533.36
2018-02-11T13:34:39.742Z,96529.48
2018-02-11T13:37:10.806Z,96532.78
2018-02-11T13:39:41.985Z,96528.27
2018-02-11T13:42:13.090Z,96528.81
2018-02-11T13:44:44.200Z,96526.98
2018-02-11T13:47:16.298Z,96530.34
2018-02-11T13:49:47.421Z,96531.07
2018-02-11T13:52:18.548Z,96530.52
2018-02-11T13:54:49.605Z,96526.77
2018-02-11T13:57:20.690Z,96517.83
2018-02-11T13:59:51.776Z,96524.02
2018-02-11T14:02:24.409Z,96524.77
2018-02-11T14:04:55.517Z,96520.77
2018-02-11T14:07:27.200Z,96520.96
2018-02-11T14:09:58.273Z,96522.22
2018-02-11T14:12:29.368Z,96520.62
2018-02-11T14:15:00.449Z,96521.56
2018-02-11T14:17:31.583Z,96520.89
2018-02-11T14:20:02.693Z,96527.13
2018-02-11T14:22:33.770Z,96524.91
2018-02-11T14:25:05.052Z,96520.55
2018-02-11T14:27:36.229Z,96516.12
2018-02-11T14:30:07.313Z,96515.89
2018-02-11T14:32:38.429Z,96524.17
2018-02-11T14:35:09.552Z,96516.59
2018-02-11T14:37:40.736Z,96514.89
2018-02-11T14:40:11.785Z,96514.42
2018-02-11T14:42:42.862Z,96518.74
2018-02-11T14:45:13.946Z,96509.78
2018-02-11T14:47:45.052Z,96515.49
2018-02-11T14:50:16.158Z,96513.58
2018-02-11T14:52:47.245Z,96515.13
2018-02-11T14:55:18.286Z,96520.01
2018-02-11T14:57:49.344Z,96520.44
2018-02-11T15:00:21.058Z,96522.03
2018-02-11T15:02:52.123Z,96516.36
2018-02-11T15:05:23.214Z,96510.84
2018-02-11T15:07:54.615Z,96515.86
2018-02-11T15:10:26.350Z,96512.02
2018-02-11T15:12:57.425Z,96505.83
2018-02-11T15:15:28.471Z,96507.92
2018-02-11T15:17:59.599Z,96511.17
2018-02-11T15:20:30.708Z,96503.10
2018-02-11T15:23:01.827Z,96496.88
2018-02-11T15:25:33.004Z,96491.42
2018-02-11T15:28:04.075Z,96501.61
2018-02-11T15:30:35.944Z,96504.67
2018-02-11T15:33:07.172Z,96506.30
2018-02-11T15:35:38.260Z,96505.91
2018-02-11T15:38:09.318Z,96511.61
2018-02-11T15:40:40.405Z,96517.48
2018-02-11T15:43:11.499Z,96510.22
2018-02-11T15:45:42.657Z,96500.16
2018-02-11T15:48:13.741Z,96497.26
2018-02-11T15:50:45.139Z,96490.49
2018-02-11T15:53:16.973Z,96490.73
2018-02-11T15:55:48.096Z,96507.25
2018-02-11T15:58:19.186Z,96506.62
2018-02-11T16:00:50.282Z,96515.07
2018-02-11T16:03:21.324Z,96512.77
2018-02-11T16:05:52.464Z,96520.10
2018-02-11T16:08:23.583Z,96520.38
2018-02-11T16:10:54.703Z,96517.75
2018-02-11T16:13:25.887Z,96521.22
2018-02-11T16:15:56.956Z,96522.24
2018-02-11T16:18:28.033Z,96519.11
2018-02-11T16:20:59.051Z,96515.98
2018-02-11T16:23:30.553Z,96518.31
2018-02-11T16:26:01.634Z,96525.16
2018-02-11T16:28:32.728Z,96528.17
2018-02-11T16:31:03.772Z,96527.94
2018-02-11T16:33:34.819Z,96530.09
2018-02-11T16:36:05.894Z,96532.89
2018-02-11T16:38:37.056Z,96533.56
2018-02-11T16:41:08.205Z,96531.86
2018-02-11T16:43:39.325Z,96527.59
2018-02-11T16:46:10.415Z,96525.42
2018-02-11T16:48:41.480Z,96532.31
2018-02-11T16:51:13.434Z,96531.63
2018-02-11T16:53:44.519Z,96527.66
2018-02-11T16:56:15.703Z,96531.42
2018-02-11T16:58:46.845Z,96535.22
2018-02-11T17:01:17.972Z,96539.71
2018-02-11T17:03:49.074Z,96538.61
2018-02-11T17:06:20.168Z,96528.97
2018-02-11T17:08:51.298Z,96512.83
2018-02-11T17:11:22.324Z,96510.91
2018-02-11T17:13:53.815Z,96510.13
2018-02-11T17:16:25.020Z,96508.13
2018-02-11T17:18:56.087Z,96501.72
2018-02-11T17:21:27.199Z,96503.66
2018-02-11T17:23:58.271Z,96494.52
2018-02-11T17:26:29.899Z,96506.66
2018-02-11T17:29:00.978Z,96513.57
2018-02-11T17:31:32.102Z,96514.87
2018-02-11T17:34:03.207Z,96523.76
2018-02-11T17:36:34.289Z,96527.06
2018-02-11T17:39:05.486Z,96521.75
2018-02-11T17:41:36.666Z,96539.41
2018-02-11T17:44:08.070Z,96542.11
2018-02-11T17:46:39.130Z,96547.28
2018-02-11T17:49:10.188Z,96554.91
2018-02-11T17:51:41.243Z,96556.86
2018-02-11T17:54:12.387Z,96558.05
2018-02-11T17:56:43.476Z,96556.05
2018-02-11T17:59:14.582Z,96556.96
2018-02-11T18:01:45.674Z,96561.69
2018-02-11T18:04:16.793Z,96548.61
2018-02-11T18:06:47.850Z,96549.24
2018-02-11T18:09:18.922Z,96556.63
2018-02-11T18:11:49.963Z,96563.39
2018-02-11T18:14:21.075Z,96562.98
2018-02-11T18:16:52.257Z,96558.96
2018-02-11T18:19:23.391Z,96556.84
2018-02-11T18:21:54.425Z,96557.19
2018-02-11T18:24:25.516Z,96563.03
2018-02-11T18:26:56.596Z,96560.12
2018-02-11T18:29:27.712Z,96559.85
2018-02-11T18:31:58.742Z,96558.16
2018-02-11T18:34:29.825Z,96566.45
2018-02-11T18:37:00.893Z,96566.36
2018-02-11T18:39:32.000Z,96561.23
2018-02-11T18:42:03.114Z,96561.67
2018-02-11T18:44:34.192Z,96567.31
2018-02-11T18:47:05.254Z,96566.22
2018-02-11T18:49:36.321Z,96562.07
2018-02-11T18:52:07.397Z,96569.22
2018-02-11T18:54:38.429Z,96568.02
2018-02-11T18:57:09.540Z,96579.71
2018-02-11T18:59:40.581Z,96574.81
2018-02-11T19:02:11.684Z,96579.70
2018-02-11T19:04:42.878Z,96585.30
2018-02-11T19:07:13.985Z,96585.70
2018-02-11T19:09:45.036Z,96590.61
2018-02-11T19:12:16.126Z,96585.38
2018-02-11T19:14:47.181Z,96586.00
2018-02-11T19:17:18.287Z,96588.21
2018-02-11T19:19:49.503Z,96600.06
2018-02-11T19:22:20.623Z,96592.84
2018-02-11T19:24:51.747Z,96588.05
2018-02-11T19:27:22.844Z,96596.25
2018-02-11T19:29:53.975Z,96599.88
2018-02-11T19:32:25.276Z,96604.66
2018-02-11T19:34:56.415Z,96602.52
2018-02-11T19:37:27.475Z,96602.23
2018-02-11T19:39:58.546Z,96611.84
2018-02-11T19:42:29.643Z,96615.40
2018-02-11T19:45:00.728Z,96608.08
2018-02-11T19:47:31.840Z,96612.23
2018-02-11T19:50:02.909Z,96622.13
2018-02-11T19:52:33.986Z,96616.08
2018-02-11T19:55:05.174Z,96622.34
2018-02-11T19:57:36.306Z,96625.05
2018-02-11T20:00:07.444Z,96633.09
2018-02-11T20:02:38.563Z,96632.09
2018-02-11T20:05:09.619Z,96643.94
2018-02-11T20:07:40.788Z,96644.78
2018-02-11T20:10:11.854Z,96644.47
2018-02-11T20:12:42.953Z,96647.99
2018-02-11T20:15:13.998Z,96655.17
2018-02-11T20:17:45.096Z,96663.11
2018-02-11T20:20:16.155Z,96660.78
2018-02-11T20:22:47.273Z,96670.86
2018-02-11T20:25:18.358Z,96673.92
2018-02-11T20:27:49.993Z,96674.06
2018-02-11T20:30:21.171Z,96676.48
2018-02-11T20:32:52.256Z,96675.14
2018-02-11T20:35:23.389Z,96676.30
2018-02-11T20:37:54.483Z,96684.95
2018-02-11T20:40:25.613Z,96688.83
2018-02-11T20:42:56.706Z,96688.19
2018-02-11T20:45:27.799Z,96686.24
2018-02-11T20:47:58.904Z,96693.45
2018-02-11T20:50:30.064Z,96693.97
2018-02-11T20:53:01.278Z,96692.40
2018-02-11T20:55:32.369Z,96699.55
2018-02-11T20:58:03.458Z,96693.13
2018-02-11T21:00:34.584Z,96701.01
2018-02-11T21:03:05.710Z,96694.72
2018-02-11T21:05:36.819Z,96699.91
2018-02-11T21:08:08.101Z,96709.47
2018-02-11T21:10:39.766Z,96716.22
2018-02-11T21:13:10.859Z,96710.33
2018-02-11T21:15:42.077Z,96704.27
2018-02-11T21:18:13.152Z,96711.29
2018-02-11T21:20:51.264Z,96717.02
2018-02-11T21:23:22.380Z,96721.72
2018-02-11T21:25:53.471Z,96726.72
2018-02-11T21:28:24.539Z,96731.58
2018-02-11T21:30:55.599Z,96732.44
2018-02-11T21:33:26.709Z,96740.04
2018-02-11T21:35:57.776Z,96736.56
2018-02-11T21:38:28.927Z,96741.55
2018-02-11T21:41:00.024Z,96738.98
2018-02-11T21:43:31.136Z,96738.95
2018-02-11T21:46:02.171Z,96753.27
2018-02-11T21:48:33.224Z,96747.75
2018-02-11T21:51:04.301Z,96753.19
2018-02-11T21:53:35.366Z,96755.94
2018-02-11T21:56:06.581Z,96763.55
2018-02-11T21:58:37.732Z,96770.94
2018-02-11T22:01:08.785Z,96764.56
2018-02-11T22:03:39.871Z,96766.00
2018-02-11T22:06:10.984Z,96766.53
2018-02-11T22:08:42.027Z,96767.03
2018-02-11T22:11:13.134Z,96760.23
2018-02-11T22:13:44.437Z,96766.77
2018-02-11T22:16:15.565Z,96766.29
2018-02-11T22:18:46.649Z,96773.50
2018-02-11T22:21:17.696Z,96775.25
2018-02-11T22:23:48.762Z,96778.23
2018-02-11T22:26:19.861Z,96780.12
2018-02-11T22:28:50.964Z,96781.38
2018-02-11T22:31:22.011Z,96782.73
2018-02-11T22:33:53.082Z,96778.83
2018-02-11T22:36:24.151Z,96784.67
2018-02-11T22:38:55.181Z,96785.98
2018-02-11T22:41:26.334Z,96797.17
2018-02-11T22:43:57.413Z,96796.78
2018-02-11T22:46:28.512Z,96798.19
2018-02-11T22:48:59.639Z,96791.81
2018-02-11T22:51:30.782Z,96794.74
2018-02-11T22:54:01.855Z,96800.16
2018-02-11T22:56:32.927Z,96796.86
2018-02-11T22:59:04.010Z,96796.97
2018-02-11T23:01:35.163Z,96788.23
2018-02-11T23:04:06.282Z,96783.66
2018-02-11T23:06:37.409Z,96793.56
2018-02-11T23:09:08.441Z,96789.94
2018-02-11T23:11:39.469Z,96804.16
2018-02-11T23:14:10.532Z,96804.15
2018-02-11T23:16:42.325Z,96807.27
2018-02-11T23:19:13.399Z,96801.48
2018-02-11T23:21:44.430Z,96805.60
2018-02-11T23:24:15.519Z,96799.71
2018-02-11T23:26:46.566Z,96804.37
2018-02-11T23:29:17.610Z,96807.17
2018-02-11T23:31:48.617Z,96806.07
2018-02-11T23:34:19.660Z,96805.17
2018-02-11T23:36:50.657Z,96809.46
2018-02-11T23:39:21.739Z,96808.37
2018-02-11T23:41:52.817Z,96805.95
2018-02-11T23:44:23.863Z,96806.77
2018-02-11T23:46:54.933Z,96817.37
2018-02-11T23:49:25.996Z,96817.39
2018-02-11T23:51:57.069Z,96827.70
2018-02-11T23:54:28.111Z,96826.14
2018-02-11T23:56:59.186Z,96830.19
2018-02-11T23:59:30.229Z,96825.30
